sensor_id;sensor_type;location;lat;lon;timestamp;pressure;altitude;pressure_sealevel;temperature;humidity
2178;BME280;1095;50.992;6.798;2023-12-14T00:02:06;99991.16;;;8.62;100.00
2178;BME280;1095;50.992;6.798;2023-12-14T00:04:33;99992.47;;;8.66;100.00
2178;BME280;1095;50.992;6.798;2023-12-14T00:06:59;99988.88;;;8.59;100.00
2178;BME280;1095;50.992;6.798;2023-12-14T00:09:26;99995.69;;;8.52;100.00
2178;BME280;1095;50.992;6.798;2023-12-14T00:11:53;100004.19;;;8.54;100.00
2178;BME280;1095;50.992;6.798;2023-12-14T00:14:19;100010.88;;;8.48;100.00
2178;BME280;1095;50.992;6.798;2023-12-14T00:16:47;100014.91;;;8.51;100.00
2178;BME280;1095;50.992;6.798;2023-12-14T00:19:14;100018.53;;;8.50;100.00
2178;BME280;1095;50.992;6.798;2023-12-14T00:21:41;100028.31;;;8.56;100.00
2178;BME280;1095;50.992;6.798;2023-12-14T00:24:07;100025.72;;;8.64;100.00
2178;BME280;1095;50.992;6.798;2023-12-14T00:26:34;100027.97;;;8.51;100.00
2178;BME280;1095;50.992;6.798;2023-12-14T00:29:01;100031.25;;;8.61;100.00
2178;BME280;1095;50.992;6.798;2023-12-14T00:31:27;100038.25;;;8.60;100.00
2178;BME280;1095;50.992;6.798;2023-12-14T00:33:55;100031.38;;;8.51;100.00
2178;BME280;1095;50.992;6.798;2023-12-14T00:36:22;100033.84;;;8.53;100.00
2178;BME280;1095;50.992;6.798;2023-12-14T00:38:49;100038.72;;;8.48;100.00
2178;BME280;1095;50.992;6.798;2023-12-14T00:41:17;100041.00;;;8.51;100.00
2178;BME280;1095;50.992;6.798;2023-12-14T00:43:43;100048.53;;;8.62;100.00
2178;BME280;1095;50.992;6.798;2023-12-14T00:46:10;100061.44;;;8.63;100.00
2178;BME280;1095;50.992;6.798;2023-12-14T00:48:37;100067.16;;;8.67;100.00
2178;BME280;1095;50.992;6.798;2023-12-14T00:51:05;100069.41;;;8.62;100.00
2178;BME280;1095;50.992;6.798;2023-12-14T00:53:32;100078.50;;;8.58;100.00
2178;BME280;1095;50.992;6.798;2023-12-14T00:55:59;100080.50;;;8.64;100.00
2178;BME280;1095;50.992;6.798;2023-12-14T00:58:25;100082.59;;;8.60;100.00
2178;BME280;1095;50.992;6.798;2023-12-14T01:00:54;100084.59;;;8.67;100.00
2178;BME280;1095;50.992;6.798;2023-12-14T01:03:21;100090.06;;;8.55;100.00
2178;BME280;1095;50.992;6.798;2023-12-14T01:05:48;100090.94;;;8.64;100.00
2178;BME280;1095;50.992;6.798;2023-12-14T01:08:16;100098.75;;;8.64;100.00
2178;BME280;1095;50.992;6.798;2023-12-14T01:10:43;100106.28;;;8.67;100.00
2178;BME280;1095;50.992;6.798;2023-12-14T01:13:09;100106.94;;;8.69;100.00
2178;BME280;1095;50.992;6.798;2023-12-14T01:15:39;100108.88;;;8.67;100.00
2178;BME280;1095;50.992;6.798;2023-12-14T01:18:05;100118.28;;;8.60;100.00
2178;BME280;1095;50.992;6.798;2023-12-14T01:20:32;100120.28;;;8.66;100.00
2178;BME280;1095;50.992;6.798;2023-12-14T01:22:58;100134.69;;;8.78;100.00
2178;BME280;1095;50.992;6.798;2023-12-14T01:25:26;100134.06;;;8.84;100.00
2178;BME280;1095;50.992;6.798;2023-12-14T01:27:53;100129.13;;;8.73;100.00
2178;BME280;1095;50.992;6.798;2023-12-14T01:30:20;100135.16;;;8.74;100.00
2178;BME280;1095;50.992;6.798;2023-12-14T01:32:46;100133.69;;;8.71;100.00
2178;BME280;1095;50.992;6.798;2023-12-14T01:35:13;100135.31;;;8.72;100.00
2178;BME280;1095;50.992;6.798;2023-12-14T01:37:40;100144.47;;;8.76;100.00
2178;BME280;1095;50.992;6.798;2023-12-14T01:40:07;100144.66;;;8.83;100.00
2178;BME280;1095;50.992;6.798;2023-12-14T01:42:36;100157.44;;;8.94;100.00
2178;BME280;1095;50.992;6.798;2023-12-14T01:45:03;100164.44;;;8.93;100.00
2178;BME280;1095;50.992;6.798;2023-12-14T01:47:30;100166.34;;;8.83;100.00
2178;BME280;1095;50.992;6.798;2023-12-14T01:49:56;100173.75;;;8.96;100.00
2178;BME280;1095;50.992;6.798;2023-12-14T01:52:23;100181.38;;;8.89;100.00
2178;BME280;1095;50.992;6.798;2023-12-14T01:54:51;100179.25;;;8.85;100.00
2178;BME280;1095;50.992;6.798;2023-12-14T01:57:17;100184.47;;;8.85;100.00
2178;BME280;1095;50.992;6.798;2023-12-14T01:59:45;100190.19;;;8.88;100.00
2178;BME280;1095;50.992;6.798;2023-12-14T02:02:12;100198.94;;;8.79;100.00
2178;BME280;1095;50.992;6.798;2023-12-14T02:04:39;100204.31;;;8.78;100.00
2178;BME280;1095;50.992;6.798;2023-12-14T02:07:05;100206.63;;;8.81;100.00
2178;BME280;1095;50.992;6.798;2023-12-14T02:09:32;100220.41;;;8.73;100.00
2178;BME280;1095;50.992;6.798;2023-12-14T02:11:59;100208.16;;;8.65;100.00
2178;BME280;1095;50.992;6.798;2023-12-14T02:14:25;100225.88;;;8.62;100.00
2178;BME280;1095;50.992;6.798;2023-12-14T02:16:53;100228.56;;;8.70;100.00
2178;BME280;1095;50.992;6.798;2023-12-14T02:19:20;100225.44;;;8.67;100.00
2178;BME280;1095;50.992;6.798;2023-12-14T02:21:47;100238.63;;;8.65;100.00
2178;BME280;1095;50.992;6.798;2023-12-14T02:24:15;100243.91;;;8.73;100.00
2178;BME280;1095;50.992;6.798;2023-12-14T02:26:42;100248.31;;;8.55;100.00
2178;BME280;1095;50.992;6.798;2023-12-14T02:29:09;100244.56;;;8.49;100.00
2178;BME280;1095;50.992;6.798;2023-12-14T02:31:36;100251.84;;;8.28;100.00
2178;BME280;1095;50.992;6.798;2023-12-14T02:34:02;100254.31;;;8.29;100.00
2178;BME280;1095;50.992;6.798;2023-12-14T02:36:29;100259.16;;;8.24;100.00
2178;BME280;1095;50.992;6.798;2023-12-14T02:38:56;100275.59;;;8.25;100.00
2178;BME280;1095;50.992;6.798;2023-12-14T02:41:24;100282.72;;;8.32;100.00
2178;BME280;1095;50.992;6.798;2023-12-14T02:43:50;100287.63;;;8.36;100.00
2178;BME280;1095;50.992;6.798;2023-12-14T02:46:17;100290.72;;;8.21;100.00
2178;BME280;1095;50.992;6.798;2023-12-14T02:48:43;100287.44;;;8.19;100.00
2178;BME280;1095;50.992;6.798;2023-12-14T02:51:12;100291.47;;;8.31;100.00
2178;BME280;1095;50.992;6.798;2023-12-14T02:53:40;100292.75;;;8.27;100.00
2178;BME280;1095;50.992;6.798;2023-12-14T02:56:08;100291.78;;;8.28;100.00
2178;BME280;1095;50.992;6.798;2023-12-14T02:58:36;100302.59;;;8.34;100.00
2178;BME280;1095;50.992;6.798;2023-12-14T03:01:03;100294.69;;;8.25;100.00
2178;BME280;1095;50.992;6.798;2023-12-14T03:03:30;100306.19;;;8.32;100.00
2178;BME280;1095;50.992;6.798;2023-12-14T03:05:57;100295.66;;;8.24;100.00
2178;BME280;1095;50.992;6.798;2023-12-14T03:08:23;100305.53;;;8.21;100.00
2178;BME280;1095;50.992;6.798;2023-12-14T03:10:50;100317.75;;;8.20;100.00
2178;BME280;1095;50.992;6.798;2023-12-14T03:13:17;100312.03;;;7.99;100.00
2178;BME280;1095;50.992;6.798;2023-12-14T03:15:45;100329.22;;;8.10;100.00
2178;BME280;1095;50.992;6.798;2023-12-14T03:18:14;100333.75;;;8.08;100.00
2178;BME280;1095;50.992;6.798;2023-12-14T03:20:41;100331.97;;;8.08;100.00
2178;BME280;1095;50.992;6.798;2023-12-14T03:23:07;100339.94;;;8.07;100.00
2178;BME280;1095;50.992;6.798;2023-12-14T03:25:34;100334.38;;;8.02;100.00
2178;BME280;1095;50.992;6.798;2023-12-14T03:28:01;100347.53;;;8.00;100.00
2178;BME280;1095;50.992;6.798;2023-12-14T03:30:27;100341.94;;;7.95;100.00
2178;BME280;1095;50.992;6.798;2023-12-14T03:32:55;100345.91;;;7.99;100.00
2178;BME280;1095;50.992;6.798;2023-12-14T03:35:22;100343.09;;;7.83;100.00
2178;BME280;1095;50.992;6.798;2023-12-14T03:37:48;100352.91;;;7.98;100.00
2178;BME280;1095;50.992;6.798;2023-12-14T03:40:18;100359.88;;;7.98;100.00
2178;BME280;1095;50.992;6.798;2023-12-14T03:42:44;100363.22;;;8.08;100.00
2178;BME280;1095;50.992;6.798;2023-12-14T03:45:11;100354.69;;;7.98;100.00
2178;BME280;1095;50.992;6.798;2023-12-14T03:47:38;100367.34;;;8.11;100.00
2178;BME280;1095;50.992;6.798;2023-12-14T03:50:07;100374.78;;;8.06;100.00
2178;BME280;1095;50.992;6.798;2023-12-14T03:52:34;100375.38;;;7.99;100.00
2178;BME280;1095;50.992;6.798;2023-12-14T03:55:01;100380.31;;;8.03;100.00
2178;BME280;1095;50.992;6.798;2023-12-14T03:57:27;100384.22;;;8.07;100.00
2178;BME280;1095;50.992;6.798;2023-12-14T03:59:54;100402.03;;;7.84;100.00
2178;BME280;1095;50.992;6.798;2023-12-14T04:02:21;100406.56;;;7.82;100.00
2178;BME280;1095;50.992;6.798;2023-12-14T04:07:16;100420.38;;;7.92;100.00
2178;BME280;1095;50.992;6.798;2023-12-14T04:09:44;100421.59;;;7.60;100.00
2178;BME280;1095;50.992;6.798;2023-12-14T04:12:11;100430.06;;;7.62;100.00
2178;BME280;1095;50.992;6.798;2023-12-14T04:14:38;100422.38;;;7.71;100.00
2178;BME280;1095;50.992;6.798;2023-12-14T04:17:05;100431.16;;;7.70;100.00
2178;BME280;1095;50.992;6.798;2023-12-14T04:19:31;100425.25;;;7.68;100.00
2178;BME280;1095;50.992;6.798;2023-12-14T04:21:58;100440.22;;;7.65;100.00
2178;BME280;1095;50.992;6.798;2023-12-14T04:24:26;100448.56;;;7.69;100.00
2178;BME280;1095;50.992;6.798;2023-12-14T04:26:53;100441.53;;;7.42;100.00
2178;BME280;1095;50.992;6.798;2023-12-14T04:29:19;100451.19;;;7.59;100.00
2178;BME280;1095;50.992;6.798;2023-12-14T04:31:46;100456.13;;;7.62;100.00
2178;BME280;1095;50.992;6.798;2023-12-14T04:34:12;100454.75;;;7.58;100.00
2178;BME280;1095;50.992;6.798;2023-12-14T04:36:41;100460.56;;;7.52;100.00
2178;BME280;1095;50.992;6.798;2023-12-14T04:39:07;100466.03;;;7.49;100.00
2178;BME280;1095;50.992;6.798;2023-12-14T04:41:35;100471.19;;;7.69;100.00
2178;BME280;1095;50.992;6.798;2023-12-14T04:44:02;100469.53;;;7.68;100.00
2178;BME280;1095;50.992;6.798;2023-12-14T04:46:29;100482.56;;;7.58;100.00
2178;BME280;1095;50.992;6.798;2023-12-14T04:48:55;100487.78;;;7.58;100.00
2178;BME280;1095;50.992;6.798;2023-12-14T04:51:22;100487.28;;;7.54;100.00
2178;BME280;1095;50.992;6.798;2023-12-14T04:53:49;100497.53;;;7.56;100.00
2178;BME280;1095;50.992;6.798;2023-12-14T04:56:15;100497.22;;;7.69;100.00
2178;BME280;1095;50.992;6.798;2023-12-14T04:58:43;100498.09;;;7.50;100.00
2178;BME280;1095;50.992;6.798;2023-12-14T05:01:10;100515.66;;;7.48;100.00
2178;BME280;1095;50.992;6.798;2023-12-14T05:03:37;100512.34;;;7.36;100.00
2178;BME280;1095;50.992;6.798;2023-12-14T05:06:04;100524.25;;;7.58;100.00
2178;BME280;1095;50.992;6.798;2023-12-14T05:08:31;100524.97;;;7.50;100.00
2178;BME280;1095;50.992;6.798;2023-12-14T05:10:58;100515.38;;;7.51;100.00
2178;BME280;1095;50.992;6.798;2023-12-14T05:13:24;100523.03;;;7.43;100.00
2178;BME280;1095;50.992;6.798;2023-12-14T05:15:52;100526.44;;;7.62;100.00
2178;BME280;1095;50.992;6.798;2023-12-14T05:25:25;100533.72;;;7.49;100.00
2178;BME280;1095;50.992;6.798;2023-12-14T05:27:52;100525.25;;;7.47;100.00
2178;BME280;1095;50.992;6.798;2023-12-14T05:30:19;100536.34;;;7.40;100.00
2178;BME280;1095;50.992;6.798;2023-12-14T05:32:47;100538.53;;;7.54;100.00
2178;BME280;1095;50.992;6.798;2023-12-14T05:35:13;100543.19;;;7.50;100.00
2178;BME280;1095;50.992;6.798;2023-12-14T05:37:40;100547.97;;;7.55;100.00
2178;BME280;1095;50.992;6.798;2023-12-14T05:40:10;100551.81;;;7.51;100.00
2178;BME280;1095;50.992;6.798;2023-12-14T05:42:37;100555.78;;;7.45;100.00
2178;BME280;1095;50.992;6.798;2023-12-14T05:45:07;100559.91;;;7.38;100.00
2178;BME280;1095;50.992;6.798;2023-12-14T05:47:34;100576.34;;;7.48;100.00
2178;BME280;1095;50.992;6.798;2023-12-14T05:50:03;100574.03;;;7.45;100.00
2178;BME280;1095;50.992;6.798;2023-12-14T05:52:30;100568.81;;;7.45;100.00
2178;BME280;1095;50.992;6.798;2023-12-14T05:54:56;100589.91;;;7.52;100.00
2178;BME280;1095;50.992;6.798;2023-12-14T05:57:23;100580.84;;;7.27;100.00
2178;BME280;1095;50.992;6.798;2023-12-14T05:59:51;100594.56;;;7.39;100.00
2178;BME280;1095;50.992;6.798;2023-12-14T06:02:18;100598.94;;;7.38;100.00
2178;BME280;1095;50.992;6.798;2023-12-14T06:04:45;100598.94;;;7.38;100.00
2178;BME280;1095;50.992;6.798;2023-12-14T06:07:15;100610.19;;;7.39;100.00
2178;BME280;1095;50.992;6.798;2023-12-14T06:09:42;100623.34;;;7.37;100.00
2178;BME280;1095;50.992;6.798;2023-12-14T06:12:08;100610.75;;;7.42;100.00
2178;BME280;1095;50.992;6.798;2023-12-14T06:14:35;100625.53;;;7.42;100.00
2178;BME280;1095;50.992;6.798;2023-12-14T06:17:02;100634.72;;;7.36;100.00
2178;BME280;1095;50.992;6.798;2023-12-14T06:19:29;100640.59;;;7.38;100.00
2178;BME280;1095;50.992;6.798;2023-12-14T06:21:55;100651.81;;;7.29;100.00
2178;BME280;1095;50.992;6.798;2023-12-14T06:24:23;100652.34;;;7.23;100.00
2178;BME280;1095;50.992;6.798;2023-12-14T06:26:50;100664.38;;;7.14;100.00
2178;BME280;1095;50.992;6.798;2023-12-14T06:29:16;100675.47;;;7.16;100.00
2178;BME280;1095;50.992;6.798;2023-12-14T06:31:45;100663.28;;;7.07;100.00
2178;BME280;1095;50.992;6.798;2023-12-14T06:34:13;100678.59;;;7.10;100.00
2178;BME280;1095;50.992;6.798;2023-12-14T06:36:42;100696.69;;;7.12;100.00
2178;BME280;1095;50.992;6.798;2023-12-14T06:39:09;100690.66;;;7.02;100.00
2178;BME280;1095;50.992;6.798;2023-12-14T06:41:37;100703.91;;;6.98;100.00
2178;BME280;1095;50.992;6.798;2023-12-14T06:44:04;100700.88;;;6.93;100.00
2178;BME280;1095;50.992;6.798;2023-12-14T06:46:37;100713.94;;;7.03;100.00
2178;BME280;1095;50.992;6.798;2023-12-14T06:49:04;100724.44;;;6.92;100.00
2178;BME280;1095;50.992;6.798;2023-12-14T06:51:30;100723.75;;;6.69;100.00
2178;BME280;1095;50.992;6.798;2023-12-14T06:53:57;100733.31;;;6.59;100.00
2178;BME280;1095;50.992;6.798;2023-12-14T06:56:24;100737.72;;;6.68;100.00
2178;BME280;1095;50.992;6.798;2023-12-14T06:58:52;100744.94;;;6.64;100.00
2178;BME280;1095;50.992;6.798;2023-12-14T07:01:19;100750.19;;;6.74;100.00
2178;BME280;1095;50.992;6.798;2023-12-14T07:03:45;100750.41;;;6.61;100.00
2178;BME280;1095;50.992;6.798;2023-12-14T07:06:13;100764.09;;;6.63;100.00
2178;BME280;1095;50.992;6.798;2023-12-14T07:08:40;100765.19;;;6.61;100.00
2178;BME280;1095;50.992;6.798;2023-12-14T07:11:07;100768.91;;;6.68;100.00
2178;BME280;1095;50.992;6.798;2023-12-14T07:13:37;100772.22;;;6.70;100.00
2178;BME280;1095;50.992;6.798;2023-12-14T07:16:07;100778.34;;;6.69;100.00
2178;BME280;1095;50.992;6.798;2023-12-14T07:18:34;100770.91;;;6.55;100.00
2178;BME280;1095;50.992;6.798;2023-12-14T07:21:01;100778.88;;;6.63;100.00
2178;BME280;1095;50.992;6.798;2023-12-14T07:23:28;100781.34;;;6.64;100.00
2178;BME280;1095;50.992;6.798;2023-12-14T07:25:57;100792.69;;;6.84;100.00
2178;BME280;1095;50.992;6.798;2023-12-14T07:28:24;100798.72;;;6.85;100.00
2178;BME280;1095;50.992;6.798;2023-12-14T07:30:50;100795.16;;;6.86;100.00
2178;BME280;1095;50.992;6.798;2023-12-14T07:33:18;100807.34;;;6.85;100.00
2178;BME280;1095;50.992;6.798;2023-12-14T07:35:45;100813.50;;;6.84;100.00
2178;BME280;1095;50.992;6.798;2023-12-14T07:38:12;100820.94;;;6.89;100.00
2178;BME280;1095;50.992;6.798;2023-12-14T07:40:38;100823.22;;;6.82;100.00
2178;BME280;1095;50.992;6.798;2023-12-14T07:43:05;100826.44;;;6.95;100.00
2178;BME280;1095;50.992;6.798;2023-12-14T07:45:32;100835.72;;;6.88;100.00
2178;BME280;1095;50.992;6.798;2023-12-14T07:47:59;100843.91;;;6.84;100.00
2178;BME280;1095;50.992;6.798;2023-12-14T07:50:27;100846.13;;;6.88;100.00
2178;BME280;1095;50.992;6.798;2023-12-14T07:52:54;100847.63;;;6.70;100.00
2178;BME280;1095;50.992;6.798;2023-12-14T07:55:20;100851.00;;;6.61;100.00
2178;BME280;1095;50.992;6.798;2023-12-14T07:57:47;100854.91;;;6.76;100.00
2178;BME280;1095;50.992;6.798;2023-12-14T08:00:15;100854.38;;;6.93;100.00
2178;BME280;1095;50.992;6.798;2023-12-14T08:02:42;100853.22;;;6.86;100.00
2178;BME280;1095;50.992;6.798;2023-12-14T08:05:09;100863.69;;;6.96;100.00
2178;BME280;1095;50.992;6.798;2023-12-14T08:07:37;100868.25;;;6.83;100.00
2178;BME280;1095;50.992;6.798;2023-12-14T08:10:04;100879.97;;;6.77;100.00
2178;BME280;1095;50.992;6.798;2023-12-14T08:12:31;100880.22;;;6.74;100.00
2178;BME280;1095;50.992;6.798;2023-12-14T08:14:58;100877.84;;;6.82;100.00
2178;BME280;1095;50.992;6.798;2023-12-14T08:17:24;100885.13;;;6.88;100.00
2178;BME280;1095;50.992;6.798;2023-12-14T08:19:53;100896.03;;;6.82;100.00
2178;BME280;1095;50.992;6.798;2023-12-14T08:22:19;100898.44;;;6.74;100.00
2178;BME280;1095;50.992;6.798;2023-12-14T08:24:48;100905.78;;;6.69;100.00
2178;BME280;1095;50.992;6.798;2023-12-14T08:27:15;100906.38;;;6.73;100.00
2178;BME280;1095;50.992;6.798;2023-12-14T08:29:41;100912.03;;;6.78;100.00
2178;BME280;1095;50.992;6.798;2023-12-14T08:32:08;100915.22;;;6.70;100.00
2178;BME280;1095;50.992;6.798;2023-12-14T08:34:35;100924.22;;;6.66;100.00
2178;BME280;1095;50.992;6.798;2023-12-14T08:37:01;100931.09;;;6.67;100.00
2178;BME280;1095;50.992;6.798;2023-12-14T08:39:28;100932.72;;;6.68;100.00
2178;BME280;1095;50.992;6.798;2023-12-14T08:41:56;100942.94;;;6.60;100.00
2178;BME280;1095;50.992;6.798;2023-12-14T08:44:23;100943.91;;;6.59;100.00
2178;BME280;1095;50.992;6.798;2023-12-14T08:46:49;100955.38;;;6.56;100.00
2178;BME280;1095;50.992;6.798;2023-12-14T08:49:16;100957.03;;;6.57;100.00
2178;BME280;1095;50.992;6.798;2023-12-14T08:51:43;100962.94;;;6.59;100.00
2178;BME280;1095;50.992;6.798;2023-12-14T08:54:09;100970.16;;;6.56;100.00
2178;BME280;1095;50.992;6.798;2023-12-14T08:56:36;100978.41;;;6.61;100.00
2178;BME280;1095;50.992;6.798;2023-12-14T08:59:04;100980.53;;;6.56;100.00
2178;BME280;1095;50.992;6.798;2023-12-14T09:01:30;100968.16;;;6.48;100.00
2178;BME280;1095;50.992;6.798;2023-12-14T09:03:57;100980.53;;;6.56;100.00
2178;BME280;1095;50.992;6.798;2023-12-14T09:06:24;100983.63;;;6.50;100.00
2178;BME280;1095;50.992;6.798;2023-12-14T09:08:50;100995.69;;;6.51;100.00
2178;BME280;1095;50.992;6.798;2023-12-14T09:11:17;100995.56;;;6.52;100.00
2178;BME280;1095;50.992;6.798;2023-12-14T09:13:44;100999.22;;;6.61;100.00
2178;BME280;1095;50.992;6.798;2023-12-14T09:16:12;101005.31;;;6.71;100.00
2178;BME280;1095;50.992;6.798;2023-12-14T09:18:38;101007.59;;;6.53;100.00
2178;BME280;1095;50.992;6.798;2023-12-14T09:21:05;101008.91;;;6.48;100.00
2178;BME280;1095;50.992;6.798;2023-12-14T09:23:32;101020.50;;;6.55;100.00
2178;BME280;1095;50.992;6.798;2023-12-14T09:25:58;101022.38;;;6.42;100.00
2178;BME280;1095;50.992;6.798;2023-12-14T09:28:25;101027.00;;;6.49;100.00
2178;BME280;1095;50.992;6.798;2023-12-14T09:30:53;101037.75;;;6.45;100.00
2178;BME280;1095;50.992;6.798;2023-12-14T09:33:21;101028.41;;;6.53;100.00
2178;BME280;1095;50.992;6.798;2023-12-14T09:35:48;101043.25;;;6.62;100.00
2178;BME280;1095;50.992;6.798;2023-12-14T09:38:15;101041.72;;;6.71;100.00
2178;BME280;1095;50.992;6.798;2023-12-14T09:40:44;101047.25;;;6.78;100.00
2178;BME280;1095;50.992;6.798;2023-12-14T09:43:11;101051.16;;;6.83;100.00
2178;BME280;1095;50.992;6.798;2023-12-14T09:45:42;101046.91;;;6.82;100.00
2178;BME280;1095;50.992;6.798;2023-12-14T09:48:11;101053.53;;;6.75;100.00
2178;BME280;1095;50.992;6.798;2023-12-14T09:50:40;101054.72;;;6.71;100.00
2178;BME280;1095;50.992;6.798;2023-12-14T09:53:07;101053.66;;;6.62;100.00
2178;BME280;1095;50.992;6.798;2023-12-14T09:55:35;101060.50;;;6.75;100.00
2178;BME280;1095;50.992;6.798;2023-12-14T09:58:02;101067.47;;;6.74;100.00
2178;BME280;1095;50.992;6.798;2023-12-14T10:00:37;101073.63;;;6.73;100.00
2178;BME280;1095;50.992;6.798;2023-12-14T10:03:25;101071.97;;;6.72;100.00
2178;BME280;1095;50.992;6.798;2023-12-14T10:05:58;101074.84;;;6.58;100.00
2178;BME280;1095;50.992;6.798;2023-12-14T10:08:28;101059.50;;;6.55;100.00
2178;BME280;1095;50.992;6.798;2023-12-14T10:10:55;101084.53;;;6.56;100.00
2178;BME280;1095;50.992;6.798;2023-12-14T10:13:35;101081.72;;;6.48;100.00
2178;BME280;1095;50.992;6.798;2023-12-14T10:16:03;101087.84;;;6.47;100.00
2178;BME280;1095;50.992;6.798;2023-12-14T10:18:31;101097.91;;;6.51;100.00
2178;BME280;1095;50.992;6.798;2023-12-14T10:21:00;101101.19;;;6.64;100.00
2178;BME280;1095;50.992;6.798;2023-12-14T10:23:27;101104.84;;;6.62;100.00
2178;BME280;1095;50.992;6.798;2023-12-14T10:25:54;101109.13;;;6.52;100.00
2178;BME280;1095;50.992;6.798;2023-12-14T10:28:22;101118.13;;;6.59;100.00
2178;BME280;1095;50.992;6.798;2023-12-14T10:30:49;101121.19;;;6.53;100.00
2178;BME280;1095;50.992;6.798;2023-12-14T10:33:16;101127.31;;;6.63;100.00
2178;BME280;1095;50.992;6.798;2023-12-14T10:35:42;101134.66;;;6.47;100.00
2178;BME280;1095;50.992;6.798;2023-12-14T10:38:15;101133.91;;;6.67;100.00
2178;BME280;1095;50.992;6.798;2023-12-14T10:40:44;101140.31;;;6.63;100.00
2178;BME280;1095;50.992;6.798;2023-12-14T10:43:12;101149.53;;;6.56;100.00
2178;BME280;1095;50.992;6.798;2023-12-14T10:45:39;101150.84;;;6.61;100.00
2178;BME280;1095;50.992;6.798;2023-12-14T10:48:08;101156.63;;;6.65;100.00
2178;BME280;1095;50.992;6.798;2023-12-14T10:50:38;101162.28;;;6.70;100.00
2178;BME280;1095;50.992;6.798;2023-12-14T10:53:08;101157.59;;;6.53;100.00
2178;BME280;1095;50.992;6.798;2023-12-14T10:55:41;101155.22;;;6.61;100.00
2178;BME280;1095;50.992;6.798;2023-12-14T10:58:10;101143.63;;;6.65;100.00
2178;BME280;1095;50.992;6.798;2023-12-14T11:00:38;101146.81;;;6.80;100.00
2178;BME280;1095;50.992;6.798;2023-12-14T11:03:05;101154.72;;;6.89;100.00
2178;BME280;1095;50.992;6.798;2023-12-14T11:05:33;101158.41;;;6.87;100.00
2178;BME280;1095;50.992;6.798;2023-12-14T11:08:02;101151.19;;;6.68;100.00
2178;BME280;1095;50.992;6.798;2023-12-14T11:10:40;101158.97;;;6.68;100.00
2178;BME280;1095;50.992;6.798;2023-12-14T11:13:07;101167.28;;;6.84;100.00
2178;BME280;1095;50.992;6.798;2023-12-14T11:15:38;101167.75;;;6.89;100.00
2178;BME280;1095;50.992;6.798;2023-12-14T11:18:24;101175.66;;;6.77;100.00
2178;BME280;1095;50.992;6.798;2023-12-14T11:20:54;101172.22;;;6.76;100.00
2178;BME280;1095;50.992;6.798;2023-12-14T11:23:32;101172.94;;;6.78;100.00
2178;BME280;1095;50.992;6.798;2023-12-14T11:26:02;101181.69;;;6.77;100.00
2178;BME280;1095;50.992;6.798;2023-12-14T11:28:30;101188.06;;;6.73;100.00
2178;BME280;1095;50.992;6.798;2023-12-14T11:30:57;101192.91;;;6.78;100.00
2178;BME280;1095;50.992;6.798;2023-12-14T11:33:24;101199.88;;;6.66;100.00
2178;BME280;1095;50.992;6.798;2023-12-14T11:35:54;101203.44;;;6.65;100.00
2178;BME280;1095;50.992;6.798;2023-12-14T11:38:20;101212.06;;;6.54;100.00
2178;BME280;1095;50.992;6.798;2023-12-14T11:40:49;101221.53;;;6.55;100.00
2178;BME280;1095;50.992;6.798;2023-12-14T11:43:17;101223.28;;;6.66;100.00
2178;BME280;1095;50.992;6.798;2023-12-14T11:45:46;101222.56;;;6.64;100.00
2178;BME280;1095;50.992;6.798;2023-12-14T11:48:13;101223.28;;;6.66;100.00
2178;BME280;1095;50.992;6.798;2023-12-14T11:50:40;101219.16;;;6.52;100.00
2178;BME280;1095;50.992;6.798;2023-12-14T11:53:08;101222.59;;;6.53;100.00
2178;BME280;1095;50.992;6.798;2023-12-14T11:55:36;101224.47;;;6.51;100.00
2178;BME280;1095;50.992;6.798;2023-12-14T11:58:04;101227.66;;;6.54;100.00
2178;BME280;1095;50.992;6.798;2023-12-14T12:00:32;101228.59;;;6.64;100.00
2178;BME280;1095;50.992;6.798;2023-12-14T12:03:09;101232.06;;;6.76;100.00
2178;BME280;1095;50.992;6.798;2023-12-14T12:05:36;101223.50;;;6.63;100.00
2178;BME280;1095;50.992;6.798;2023-12-14T12:08:03;101227.22;;;6.60;100.00
2178;BME280;1095;50.992;6.798;2023-12-14T12:10:30;101231.09;;;6.66;100.00
2178;BME280;1095;50.992;6.798;2023-12-14T12:12:59;101228.75;;;6.74;100.00
2178;BME280;1095;50.992;6.798;2023-12-14T12:15:26;101222.09;;;6.70;100.00
2178;BME280;1095;50.992;6.798;2023-12-14T12:17:56;101229.94;;;6.81;100.00
2178;BME280;1095;50.992;6.798;2023-12-14T12:20:23;101217.13;;;6.67;100.00
2178;BME280;1095;50.992;6.798;2023-12-14T12:22:51;101220.72;;;6.88;100.00
2178;BME280;1095;50.992;6.798;2023-12-14T12:25:17;101215.72;;;6.74;100.00
2178;BME280;1095;50.992;6.798;2023-12-14T12:27:44;101222.13;;;6.81;100.00
2178;BME280;1095;50.992;6.798;2023-12-14T12:30:11;101224.25;;;6.87;100.00
2178;BME280;1095;50.992;6.798;2023-12-14T12:32:38;101218.69;;;6.81;100.00
2178;BME280;1095;50.992;6.798;2023-12-14T12:35:06;101223.66;;;6.73;100.00
2178;BME280;1095;50.992;6.798;2023-12-14T12:37:33;101221.06;;;6.84;100.00
2178;BME280;1095;50.992;6.798;2023-12-14T12:40:00;101236.31;;;6.88;100.00
2178;BME280;1095;50.992;6.798;2023-12-14T12:42:27;101227.09;;;6.84;100.00
2178;BME280;1095;50.992;6.798;2023-12-14T12:44:54;101237.28;;;6.98;100.00
2178;BME280;1095;50.992;6.798;2023-12-14T12:47:21;101230.88;;;6.80;100.00
2178;BME280;1095;50.992;6.798;2023-12-14T12:49:47;101225.91;;;6.77;100.00
2178;BME280;1095;50.992;6.798;2023-12-14T12:52:16;101232.75;;;6.78;100.00
2178;BME280;1095;50.992;6.798;2023-12-14T12:54:43;101235.56;;;6.64;100.00
2178;BME280;1095;50.992;6.798;2023-12-14T12:57:10;101244.81;;;6.68;100.00
2178;BME280;1095;50.992;6.798;2023-12-14T12:59:36;101243.03;;;6.57;100.00
2178;BME280;1095;50.992;6.798;2023-12-14T13:02:03;101248.94;;;6.59;100.00
2178;BME280;1095;50.992;6.798;2023-12-14T13:04:30;101246.91;;;6.63;100.00
2178;BME280;1095;50.992;6.798;2023-12-14T13:06:57;101255.66;;;6.62;100.00
2178;BME280;1095;50.992;6.798;2023-12-14T13:09:25;101259.81;;;6.53;100.00
2178;BME280;1095;50.992;6.798;2023-12-14T13:11:51;101257.22;;;6.53;100.00
2178;BME280;1095;50.992;6.798;2023-12-14T13:14:18;101258.25;;;6.51;100.00
2178;BME280;1095;50.992;6.798;2023-12-14T13:16:45;101267.69;;;6.41;100.00
2178;BME280;1095;50.992;6.798;2023-12-14T13:19:13;101280.72;;;6.52;100.00
2178;BME280;1095;50.992;6.798;2023-12-14T13:21:39;101275.91;;;6.58;100.00